sensor_id;sensor_type;location;lat;lon;timestamp;P1;durP1;ratioP1;P2;durP2;ratioP2
11907;SDS011;6014;47.690;9.130;2024-01-06T00:01:37;11.53;;;6.83;;
11907;SDS011;6014;47.690;9.130;2024-01-06T00:04:07;10.80;;;5.57;;
11907;SDS011;6014;47.690;9.130;2024-01-06T00:06:35;9.30;;;5.87;;
11907;SDS011;6014;47.690;9.130;2024-01-06T00:09:03;12.30;;;7.23;;
11907;SDS011;6014;47.690;9.130;2024-01-06T00:11:32;10.37;;;6.20;;
11907;SDS011;6014;47.690;9.130;2024-01-06T00:14:01;13.03;;;6.37;;
11907;SDS011;6014;47.690;9.130;2024-01-06T00:16:29;10.00;;;5.37;;
11907;SDS011;6014;47.690;9.130;2024-01-06T00:18:58;10.37;;;5.87;;
11907;SDS011;6014;47.690;9.130;2024-01-06T00:21:28;9.10;;;5.77;;
11907;SDS011;6014;47.690;9.130;2024-01-06T00:23:57;10.37;;;5.40;;
11907;SDS011;6014;47.690;9.130;2024-01-06T00:26:25;10.77;;;5.57;;
11907;SDS011;6014;47.690;9.130;2024-01-06T00:28:53;12.37;;;7.83;;
11907;SDS011;6014;47.690;9.130;2024-01-06T00:31:22;11.07;;;6.27;;
11907;SDS011;6014;47.690;9.130;2024-01-06T00:33:50;10.70;;;5.30;;
11907;SDS011;6014;47.690;9.130;2024-01-06T00:36:19;9.27;;;5.07;;
11907;SDS011;6014;47.690;9.130;2024-01-06T00:38:49;9.87;;;5.70;;
11907;SDS011;6014;47.690;9.130;2024-01-06T00:41:17;9.97;;;5.77;;
11907;SDS011;6014;47.690;9.130;2024-01-06T00:43:45;8.47;;;4.87;;
11907;SDS011;6014;47.690;9.130;2024-01-06T00:46:14;9.27;;;5.67;;
11907;SDS011;6014;47.690;9.130;2024-01-06T00:48:42;8.53;;;4.47;;
11907;SDS011;6014;47.690;9.130;2024-01-06T00:51:10;8.70;;;4.70;;
11907;SDS011;6014;47.690;9.130;2024-01-06T00:53:39;10.40;;;5.73;;
11907;SDS011;6014;47.690;9.130;2024-01-06T00:56:08;8.30;;;5.17;;
11907;SDS011;6014;47.690;9.130;2024-01-06T00:58:37;8.33;;;4.90;;
11907;SDS011;6014;47.690;9.130;2024-01-06T01:01:05;8.63;;;5.10;;
11907;SDS011;6014;47.690;9.130;2024-01-06T01:03:34;7.50;;;4.65;;
11907;SDS011;6014;47.690;9.130;2024-01-06T01:06:02;8.87;;;5.00;;
11907;SDS011;6014;47.690;9.130;2024-01-06T01:08:31;8.07;;;3.97;;
11907;SDS011;6014;47.690;9.130;2024-01-06T01:10:59;8.13;;;4.57;;
11907;SDS011;6014;47.690;9.130;2024-01-06T01:13:29;7.50;;;4.23;;
11907;SDS011;6014;47.690;9.130;2024-01-06T01:15:57;7.10;;;4.13;;
11907;SDS011;6014;47.690;9.130;2024-01-06T01:18:26;10.20;;;4.80;;
11907;SDS011;6014;47.690;9.130;2024-01-06T01:20:54;8.37;;;4.63;;
11907;SDS011;6014;47.690;9.130;2024-01-06T01:23:22;8.80;;;4.70;;
11907;SDS011;6014;47.690;9.130;2024-01-06T01:25:51;8.87;;;4.90;;
11907;SDS011;6014;47.690;9.130;2024-01-06T01:28:19;7.00;;;3.63;;
11907;SDS011;6014;47.690;9.130;2024-01-06T01:30:49;7.03;;;3.80;;
11907;SDS011;6014;47.690;9.130;2024-01-06T01:33:17;17.90;;;10.17;;
11907;SDS011;6014;47.690;9.130;2024-01-06T01:35:45;10.20;;;5.63;;
11907;SDS011;6014;47.690;9.130;2024-01-06T01:38:19;7.23;;;4.73;;
11907;SDS011;6014;47.690;9.130;2024-01-06T01:40:49;8.17;;;4.57;;
11907;SDS011;6014;47.690;9.130;2024-01-06T01:43:18;12.20;;;6.00;;
11907;SDS011;6014;47.690;9.130;2024-01-06T01:45:50;10.53;;;5.13;;
11907;SDS011;6014;47.690;9.130;2024-01-06T01:48:22;9.93;;;5.40;;
11907;SDS011;6014;47.690;9.130;2024-01-06T01:50:51;10.53;;;5.37;;
11907;SDS011;6014;47.690;9.130;2024-01-06T01:53:21;8.90;;;4.90;;
11907;SDS011;6014;47.690;9.130;2024-01-06T01:55:50;10.40;;;5.33;;
11907;SDS011;6014;47.690;9.130;2024-01-06T01:58:19;14.37;;;6.33;;
11907;SDS011;6014;47.690;9.130;2024-01-06T02:00:49;10.50;;;5.10;;
11907;SDS011;6014;47.690;9.130;2024-01-06T02:03:17;42.67;;;20.67;;
11907;SDS011;6014;47.690;9.130;2024-01-06T02:05:46;11.13;;;6.03;;
11907;SDS011;6014;47.690;9.130;2024-01-06T02:08:15;6.40;;;3.93;;
11907;SDS011;6014;47.690;9.130;2024-01-06T02:10:44;7.60;;;4.87;;
11907;SDS011;6014;47.690;9.130;2024-01-06T02:13:12;8.87;;;4.93;;
11907;SDS011;6014;47.690;9.130;2024-01-06T02:15:41;8.00;;;4.30;;
11907;SDS011;6014;47.690;9.130;2024-01-06T02:18:10;10.13;;;5.20;;
11907;SDS011;6014;47.690;9.130;2024-01-06T02:20:39;9.33;;;4.83;;
11907;SDS011;6014;47.690;9.130;2024-01-06T02:23:12;6.70;;;3.63;;
11907;SDS011;6014;47.690;9.130;2024-01-06T02:25:40;7.40;;;4.43;;
11907;SDS011;6014;47.690;9.130;2024-01-06T02:28:09;6.80;;;3.67;;
11907;SDS011;6014;47.690;9.130;2024-01-06T02:30:37;7.07;;;3.77;;
11907;SDS011;6014;47.690;9.130;2024-01-06T02:33:06;6.43;;;3.53;;
11907;SDS011;6014;47.690;9.130;2024-01-06T02:35:34;5.20;;;2.90;;
11907;SDS011;6014;47.690;9.130;2024-01-06T02:38:03;6.13;;;3.23;;
11907;SDS011;6014;47.690;9.130;2024-01-06T02:40:32;6.10;;;3.13;;
11907;SDS011;6014;47.690;9.130;2024-01-06T02:43:01;6.23;;;3.70;;
11907;SDS011;6014;47.690;9.130;2024-01-06T02:45:29;6.17;;;3.60;;
11907;SDS011;6014;47.690;9.130;2024-01-06T02:47:58;7.10;;;3.73;;
11907;SDS011;6014;47.690;9.130;2024-01-06T02:50:26;6.80;;;3.87;;
11907;SDS011;6014;47.690;9.130;2024-01-06T02:52:54;9.07;;;3.97;;
11907;SDS011;6014;47.690;9.130;2024-01-06T02:55:24;7.43;;;3.67;;
11907;SDS011;6014;47.690;9.130;2024-01-06T02:57:54;6.33;;;3.77;;
11907;SDS011;6014;47.690;9.130;2024-01-06T03:00:23;6.10;;;3.23;;
11907;SDS011;6014;47.690;9.130;2024-01-06T03:02:51;5.97;;;3.37;;
11907;SDS011;6014;47.690;9.130;2024-01-06T03:05:20;6.53;;;3.47;;
11907;SDS011;6014;47.690;9.130;2024-01-06T03:07:48;6.90;;;3.43;;
11907;SDS011;6014;47.690;9.130;2024-01-06T03:10:16;5.57;;;3.37;;
11907;SDS011;6014;47.690;9.130;2024-01-06T03:12:45;4.87;;;2.53;;
11907;SDS011;6014;47.690;9.130;2024-01-06T03:15:15;6.87;;;2.40;;
11907;SDS011;6014;47.690;9.130;2024-01-06T03:17:43;3.60;;;2.20;;
11907;SDS011;6014;47.690;9.130;2024-01-06T03:20:12;2.93;;;1.67;;
11907;SDS011;6014;47.690;9.130;2024-01-06T03:22:41;1.77;;;1.27;;
11907;SDS011;6014;47.690;9.130;2024-01-06T03:25:09;2.33;;;1.40;;
11907;SDS011;6014;47.690;9.130;2024-01-06T03:27:37;2.50;;;1.50;;
11907;SDS011;6014;47.690;9.130;2024-01-06T03:30:06;5.93;;;1.83;;
11907;SDS011;6014;47.690;9.130;2024-01-06T03:32:37;3.23;;;1.53;;
11907;SDS011;6014;47.690;9.130;2024-01-06T03:35:05;2.70;;;1.60;;
11907;SDS011;6014;47.690;9.130;2024-01-06T03:37:34;2.03;;;1.10;;
11907;SDS011;6014;47.690;9.130;2024-01-06T03:40:03;2.27;;;1.13;;
11907;SDS011;6014;47.690;9.130;2024-01-06T03:42:32;2.43;;;1.30;;
11907;SDS011;6014;47.690;9.130;2024-01-06T03:45:04;3.00;;;1.70;;
11907;SDS011;6014;47.690;9.130;2024-01-06T03:47:34;5.20;;;1.43;;
11907;SDS011;6014;47.690;9.130;2024-01-06T03:50:04;1.83;;;1.10;;
11907;SDS011;6014;47.690;9.130;2024-01-06T03:52:33;4.40;;;1.37;;
11907;SDS011;6014;47.690;9.130;2024-01-06T03:55:01;2.00;;;1.10;;
11907;SDS011;6014;47.690;9.130;2024-01-06T03:57:29;4.00;;;1.53;;
11907;SDS011;6014;47.690;9.130;2024-01-06T03:59:58;3.17;;;1.47;;
11907;SDS011;6014;47.690;9.130;2024-01-06T04:02:26;3.10;;;1.37;;
11907;SDS011;6014;47.690;9.130;2024-01-06T04:04:54;4.30;;;1.73;;
11907;SDS011;6014;47.690;9.130;2024-01-06T04:07:24;4.13;;;1.30;;
11907;SDS011;6014;47.690;9.130;2024-01-06T04:09:52;2.43;;;1.30;;
11907;SDS011;6014;47.690;9.130;2024-01-06T04:12:21;3.77;;;1.20;;
11907;SDS011;6014;47.690;9.130;2024-01-06T04:14:49;2.00;;;1.20;;
11907;SDS011;6014;47.690;9.130;2024-01-06T04:17:18;2.40;;;1.33;;
11907;SDS011;6014;47.690;9.130;2024-01-06T04:19:46;2.20;;;1.27;;
11907;SDS011;6014;47.690;9.130;2024-01-06T04:22:14;2.70;;;1.30;;
11907;SDS011;6014;47.690;9.130;2024-01-06T04:24:44;1.30;;;1.20;;
11907;SDS011;6014;47.690;9.130;2024-01-06T04:27:12;2.30;;;1.33;;
11907;SDS011;6014;47.690;9.130;2024-01-06T04:29:41;1.90;;;1.07;;
11907;SDS011;6014;47.690;9.130;2024-01-06T04:32:09;3.13;;;1.30;;
11907;SDS011;6014;47.690;9.130;2024-01-06T04:34:37;3.63;;;1.57;;
11907;SDS011;6014;47.690;9.130;2024-01-06T04:37:06;4.17;;;1.53;;
11907;SDS011;6014;47.690;9.130;2024-01-06T04:39:34;1.53;;;1.07;;
11907;SDS011;6014;47.690;9.130;2024-01-06T04:42:05;4.03;;;1.50;;
11907;SDS011;6014;47.690;9.130;2024-01-06T04:44:33;1.83;;;1.33;;
11907;SDS011;6014;47.690;9.130;2024-01-06T04:47:01;3.17;;;1.67;;
11907;SDS011;6014;47.690;9.130;2024-01-06T04:49:30;4.50;;;1.90;;
11907;SDS011;6014;47.690;9.130;2024-01-06T04:51:59;3.70;;;1.67;;
11907;SDS011;6014;47.690;9.130;2024-01-06T04:54:27;3.23;;;1.50;;
11907;SDS011;6014;47.690;9.130;2024-01-06T04:56:55;2.87;;;1.40;;
11907;SDS011;6014;47.690;9.130;2024-01-06T04:59:26;3.70;;;1.67;;
11907;SDS011;6014;47.690;9.130;2024-01-06T05:01:55;3.10;;;1.53;;
11907;SDS011;6014;47.690;9.130;2024-01-06T05:04:25;3.90;;;1.63;;
11907;SDS011;6014;47.690;9.130;2024-01-06T05:06:55;7.77;;;1.87;;
11907;SDS011;6014;47.690;9.130;2024-01-06T05:09:23;2.80;;;1.50;;
11907;SDS011;6014;47.690;9.130;2024-01-06T05:11:52;2.40;;;1.67;;
11907;SDS011;6014;47.690;9.130;2024-01-06T05:14:20;3.67;;;1.60;;
11907;SDS011;6014;47.690;9.130;2024-01-06T05:16:50;2.83;;;1.60;;
11907;SDS011;6014;47.690;9.130;2024-01-06T05:19:18;4.83;;;1.77;;
11907;SDS011;6014;47.690;9.130;2024-01-06T05:21:48;2.70;;;1.67;;
11907;SDS011;6014;47.690;9.130;2024-01-06T05:24:16;3.67;;;1.57;;
11907;SDS011;6014;47.690;9.130;2024-01-06T05:26:45;2.80;;;1.57;;
11907;SDS011;6014;47.690;9.130;2024-01-06T05:29:14;4.70;;;1.80;;
11907;SDS011;6014;47.690;9.130;2024-01-06T05:31:42;2.43;;;1.50;;
11907;SDS011;6014;47.690;9.130;2024-01-06T05:34:13;6.10;;;1.73;;
11907;SDS011;6014;47.690;9.130;2024-01-06T05:36:42;4.27;;;1.77;;
11907;SDS011;6014;47.690;9.130;2024-01-06T05:39:10;3.40;;;1.73;;
11907;SDS011;6014;47.690;9.130;2024-01-06T05:41:39;2.23;;;1.20;;
11907;SDS011;6014;47.690;9.130;2024-01-06T05:44:08;2.53;;;1.23;;
11907;SDS011;6014;47.690;9.130;2024-01-06T05:46:36;2.07;;;1.27;;
11907;SDS011;6014;47.690;9.130;2024-01-06T05:49:04;4.17;;;1.07;;
11907;SDS011;6014;47.690;9.130;2024-01-06T05:51:34;3.23;;;1.80;;
11907;SDS011;6014;47.690;9.130;2024-01-06T05:54:02;2.67;;;1.30;;
11907;SDS011;6014;47.690;9.130;2024-01-06T05:56:31;1.90;;;1.20;;
11907;SDS011;6014;47.690;9.130;2024-01-06T05:58:59;1.23;;;1.00;;
11907;SDS011;6014;47.690;9.130;2024-01-06T06:01:29;3.20;;;1.23;;
11907;SDS011;6014;47.690;9.130;2024-01-06T06:03:57;1.30;;;1.03;;
11907;SDS011;6014;47.690;9.130;2024-01-06T06:06:26;2.63;;;1.00;;
11907;SDS011;6014;47.690;9.130;2024-01-06T06:08:56;2.57;;;1.33;;
11907;SDS011;6014;47.690;9.130;2024-01-06T06:11:24;1.53;;;1.20;;
11907;SDS011;6014;47.690;9.130;2024-01-06T06:13:52;3.30;;;1.10;;
11907;SDS011;6014;47.690;9.130;2024-01-06T06:16:20;2.67;;;1.33;;
11907;SDS011;6014;47.690;9.130;2024-01-06T06:18:48;7.13;;;1.50;;
11907;SDS011;6014;47.690;9.130;2024-01-06T06:21:17;3.03;;;1.30;;
11907;SDS011;6014;47.690;9.130;2024-01-06T06:23:45;2.40;;;1.00;;
11907;SDS011;6014;47.690;9.130;2024-01-06T06:26:15;2.37;;;1.20;;
11907;SDS011;6014;47.690;9.130;2024-01-06T06:28:43;2.03;;;1.43;;
11907;SDS011;6014;47.690;9.130;2024-01-06T06:31:11;1.40;;;1.00;;
11907;SDS011;6014;47.690;9.130;2024-01-06T06:33:40;2.40;;;1.33;;
11907;SDS011;6014;47.690;9.130;2024-01-06T06:36:09;1.60;;;1.07;;
11907;SDS011;6014;47.690;9.130;2024-01-06T06:38:38;2.70;;;1.30;;
11907;SDS011;6014;47.690;9.130;2024-01-06T06:41:06;1.33;;;0.97;;
11907;SDS011;6014;47.690;9.130;2024-01-06T06:43:36;2.60;;;1.10;;
11907;SDS011;6014;47.690;9.130;2024-01-06T06:46:04;2.20;;;0.97;;
11907;SDS011;6014;47.690;9.130;2024-01-06T06:48:33;3.40;;;1.20;;
11907;SDS011;6014;47.690;9.130;2024-01-06T06:51:02;2.67;;;1.27;;
11907;SDS011;6014;47.690;9.130;2024-01-06T06:53:31;2.37;;;1.30;;
11907;SDS011;6014;47.690;9.130;2024-01-06T06:55:59;2.17;;;1.20;;
11907;SDS011;6014;47.690;9.130;2024-01-06T06:58:27;1.40;;;0.90;;
11907;SDS011;6014;47.690;9.130;2024-01-06T07:00:57;3.50;;;1.40;;
11907;SDS011;6014;47.690;9.130;2024-01-06T07:03:25;2.37;;;1.60;;
11907;SDS011;6014;47.690;9.130;2024-01-06T07:05:54;3.40;;;1.63;;
11907;SDS011;6014;47.690;9.130;2024-01-06T07:08:22;2.37;;;1.33;;
11907;SDS011;6014;47.690;9.130;2024-01-06T07:10:51;3.03;;;1.70;;
11907;SDS011;6014;47.690;9.130;2024-01-06T07:13:19;2.57;;;1.23;;
11907;SDS011;6014;47.690;9.130;2024-01-06T07:15:47;4.27;;;2.00;;
11907;SDS011;6014;47.690;9.130;2024-01-06T07:18:19;3.33;;;1.90;;
11907;SDS011;6014;47.690;9.130;2024-01-06T07:20:49;2.80;;;1.43;;
11907;SDS011;6014;47.690;9.130;2024-01-06T07:23:18;6.27;;;2.83;;
11907;SDS011;6014;47.690;9.130;2024-01-06T07:25:46;3.13;;;2.03;;
11907;SDS011;6014;47.690;9.130;2024-01-06T07:28:15;4.87;;;1.70;;
11907;SDS011;6014;47.690;9.130;2024-01-06T07:30:42;1.97;;;1.50;;
11907;SDS011;6014;47.690;9.130;2024-01-06T07:33:11;2.30;;;1.33;;
11907;SDS011;6014;47.690;9.130;2024-01-06T07:35:41;1.40;;;0.97;;
11907;SDS011;6014;47.690;9.130;2024-01-06T07:38:10;3.23;;;1.40;;
11907;SDS011;6014;47.690;9.130;2024-01-06T07:40:39;3.37;;;1.50;;
11907;SDS011;6014;47.690;9.130;2024-01-06T07:43:08;4.87;;;1.67;;
11907;SDS011;6014;47.690;9.130;2024-01-06T07:45:36;7.67;;;1.50;;
11907;SDS011;6014;47.690;9.130;2024-01-06T07:48:05;2.33;;;1.33;;
11907;SDS011;6014;47.690;9.130;2024-01-06T07:50:34;2.27;;;1.20;;
11907;SDS011;6014;47.690;9.130;2024-01-06T07:53:04;5.67;;;1.60;;
11907;SDS011;6014;47.690;9.130;2024-01-06T07:55:32;4.13;;;1.70;;
11907;SDS011;6014;47.690;9.130;2024-01-06T07:58:00;3.67;;;1.57;;
11907;SDS011;6014;47.690;9.130;2024-01-06T08:00:29;4.57;;;1.60;;
11907;SDS011;6014;47.690;9.130;2024-01-06T08:02:58;3.60;;;1.73;;
11907;SDS011;6014;47.690;9.130;2024-01-06T08:05:26;4.90;;;1.70;;
11907;SDS011;6014;47.690;9.130;2024-01-06T08:07:54;5.90;;;1.93;;
11907;SDS011;6014;47.690;9.130;2024-01-06T08:10:24;2.93;;;1.60;;
11907;SDS011;6014;47.690;9.130;2024-01-06T08:12:52;3.83;;;1.70;;
11907;SDS011;6014;47.690;9.130;2024-01-06T08:15:21;4.53;;;1.90;;
11907;SDS011;6014;47.690;9.130;2024-01-06T08:17:49;4.13;;;1.80;;
11907;SDS011;6014;47.690;9.130;2024-01-06T08:20:18;4.27;;;1.70;;
11907;SDS011;6014;47.690;9.130;2024-01-06T08:22:47;3.97;;;1.87;;
11907;SDS011;6014;47.690;9.130;2024-01-06T08:25:15;3.80;;;1.80;;
11907;SDS011;6014;47.690;9.130;2024-01-06T08:27:45;3.30;;;2.07;;
11907;SDS011;6014;47.690;9.130;2024-01-06T08:30:14;3.97;;;2.00;;
11907;SDS011;6014;47.690;9.130;2024-01-06T08:32:42;4.90;;;1.73;;
11907;SDS011;6014;47.690;9.130;2024-01-06T08:35:11;3.23;;;1.60;;
11907;SDS011;6014;47.690;9.130;2024-01-06T08:37:43;2.80;;;1.80;;
11907;SDS011;6014;47.690;9.130;2024-01-06T08:40:11;4.20;;;1.77;;
11907;SDS011;6014;47.690;9.130;2024-01-06T08:42:39;3.67;;;1.60;;
11907;SDS011;6014;47.690;9.130;2024-01-06T08:45:10;4.30;;;1.83;;
11907;SDS011;6014;47.690;9.130;2024-01-06T08:47:38;2.73;;;1.43;;
11907;SDS011;6014;47.690;9.130;2024-01-06T08:50:07;3.93;;;1.57;;
11907;SDS011;6014;47.690;9.130;2024-01-06T08:52:36;4.07;;;1.90;;
11907;SDS011;6014;47.690;9.130;2024-01-06T08:55:03;3.37;;;1.60;;
11907;SDS011;6014;47.690;9.130;2024-01-06T08:57:33;2.33;;;1.20;;
11907;SDS011;6014;47.690;9.130;2024-01-06T09:00:01;2.93;;;1.50;;
11907;SDS011;6014;47.690;9.130;2024-01-06T09:02:31;3.50;;;1.40;;
11907;SDS011;6014;47.690;9.130;2024-01-06T09:04:59;2.70;;;1.43;;
11907;SDS011;6014;47.690;9.130;2024-01-06T09:07:28;4.87;;;1.70;;
11907;SDS011;6014;47.690;9.130;2024-01-06T09:09:56;5.00;;;1.47;;
11907;SDS011;6014;47.690;9.130;2024-01-06T09:12:24;3.10;;;1.37;;
11907;SDS011;6014;47.690;9.130;2024-01-06T09:14:52;2.17;;;1.50;;
11907;SDS011;6014;47.690;9.130;2024-01-06T09:17:20;4.10;;;1.60;;
11907;SDS011;6014;47.690;9.130;2024-01-06T09:19:51;2.50;;;1.20;;
11907;SDS011;6014;47.690;9.130;2024-01-06T09:22:20;3.97;;;1.60;;
11907;SDS011;6014;47.690;9.130;2024-01-06T09:24:50;2.90;;;1.30;;
11907;SDS011;6014;47.690;9.130;2024-01-06T09:27:19;4.00;;;1.63;;
11907;SDS011;6014;47.690;9.130;2024-01-06T09:29:47;2.73;;;1.50;;
11907;SDS011;6014;47.690;9.130;2024-01-06T09:32:17;3.67;;;1.50;;
11907;SDS011;6014;47.690;9.130;2024-01-06T09:34:45;1.77;;;1.20;;
11907;SDS011;6014;47.690;9.130;2024-01-06T09:37:15;2.17;;;1.30;;
11907;SDS011;6014;47.690;9.130;2024-01-06T09:39:43;2.87;;;1.50;;
11907;SDS011;6014;47.690;9.130;2024-01-06T09:42:11;2.80;;;1.53;;
11907;SDS011;6014;47.690;9.130;2024-01-06T09:44:40;4.47;;;1.90;;
11907;SDS011;6014;47.690;9.130;2024-01-06T09:47:08;5.60;;;2.63;;
11907;SDS011;6014;47.690;9.130;2024-01-06T09:49:40;4.13;;;2.03;;
11907;SDS011;6014;47.690;9.130;2024-01-06T09:52:12;6.30;;;2.07;;
11907;SDS011;6014;47.690;9.130;2024-01-06T09:54:50;3.23;;;1.80;;
11907;SDS011;6014;47.690;9.130;2024-01-06T09:57:21;4.03;;;2.33;;
11907;SDS011;6014;47.690;9.130;2024-01-06T09:59:51;4.80;;;2.30;;
11907;SDS011;6014;47.690;9.130;2024-01-06T10:02:20;3.40;;;1.90;;
11907;SDS011;6014;47.690;9.130;2024-01-06T10:04:49;3.87;;;1.90;;
11907;SDS011;6014;47.690;9.130;2024-01-06T10:07:19;4.50;;;2.10;;
11907;SDS011;6014;47.690;9.130;2024-01-06T10:09:47;3.60;;;1.90;;
11907;SDS011;6014;47.690;9.130;2024-01-06T10:12:15;3.07;;;1.70;;
11907;SDS011;6014;47.690;9.130;2024-01-06T10:14:43;3.50;;;2.00;;
11907;SDS011;6014;47.690;9.130;2024-01-06T10:17:12;6.00;;;2.20;;
11907;SDS011;6014;47.690;9.130;2024-01-06T10:19:40;5.73;;;1.80;;
11907;SDS011;6014;47.690;9.130;2024-01-06T10:22:12;3.77;;;2.00;;
11907;SDS011;6014;47.690;9.130;2024-01-06T10:24:42;5.70;;;1.77;;
11907;SDS011;6014;47.690;9.130;2024-01-06T10:27:10;5.03;;;2.37;;
11907;SDS011;6014;47.690;9.130;2024-01-06T10:29:39;3.70;;;1.80;;
11907;SDS011;6014;47.690;9.130;2024-01-06T10:32:08;8.07;;;1.90;;
11907;SDS011;6014;47.690;9.130;2024-01-06T10:34:37;3.93;;;1.97;;
11907;SDS011;6014;47.690;9.130;2024-01-06T10:37:05;3.37;;;1.70;;
11907;SDS011;6014;47.690;9.130;2024-01-06T10:39:34;3.47;;;1.90;;
11907;SDS011;6014;47.690;9.130;2024-01-06T10:42:05;3.47;;;1.63;;
11907;SDS011;6014;47.690;9.130;2024-01-06T10:44:34;4.73;;;2.07;;
11907;SDS011;6014;47.690;9.130;2024-01-06T10:47:03;4.53;;;1.97;;
11907;SDS011;6014;47.690;9.130;2024-01-06T10:49:34;5.87;;;1.90;;
11907;SDS011;6014;47.690;9.130;2024-01-06T10:52:04;3.47;;;1.60;;
11907;SDS011;6014;47.690;9.130;2024-01-06T10:54:34;3.27;;;1.67;;
11907;SDS011;6014;47.690;9.130;2024-01-06T10:57:06;3.33;;;1.90;;
11907;SDS011;6014;47.690;9.130;2024-01-06T10:59:34;3.17;;;1.67;;
11907;SDS011;6014;47.690;9.130;2024-01-06T11:02:05;3.33;;;1.77;;
11907;SDS011;6014;47.690;9.130;2024-01-06T11:04:35;4.00;;;1.70;;
11907;SDS011;6014;47.690;9.130;2024-01-06T11:07:04;4.07;;;1.90;;
11907;SDS011;6014;47.690;9.130;2024-01-06T11:09:34;2.97;;;1.97;;
11907;SDS011;6014;47.690;9.130;2024-01-06T11:12:08;4.77;;;2.10;;
11907;SDS011;6014;47.690;9.130;2024-01-06T11:14:37;3.90;;;1.90;;
11907;SDS011;6014;47.690;9.130;2024-01-06T11:17:05;5.13;;;1.73;;
11907;SDS011;6014;47.690;9.130;2024-01-06T11:19:43;4.83;;;2.13;;
11907;SDS011;6014;47.690;9.130;2024-01-06T11:22:23;3.30;;;1.88;;
11907;SDS011;6014;47.690;9.130;2024-01-06T11:24:55;3.47;;;1.80;;
11907;SDS011;6014;47.690;9.130;2024-01-06T11:27:27;3.67;;;1.90;;
11907;SDS011;6014;47.690;9.130;2024-01-06T11:29:56;7.03;;;1.97;;
11907;SDS011;6014;47.690;9.130;2024-01-06T11:32:30;3.27;;;1.60;;
11907;SDS011;6014;47.690;9.130;2024-01-06T11:35:06;3.20;;;1.60;;
11907;SDS011;6014;47.690;9.130;2024-01-06T11:37:36;2.87;;;1.73;;
11907;SDS011;6014;47.690;9.130;2024-01-06T11:40:23;3.27;;;1.63;;
11907;SDS011;6014;47.690;9.130;2024-01-06T11:42:59;3.90;;;1.83;;
11907;SDS011;6014;47.690;9.130;2024-01-06T11:45:31;6.03;;;2.00;;
11907;SDS011;6014;47.690;9.130;2024-01-06T11:48:02;4.87;;;1.60;;
11907;SDS011;6014;47.690;9.130;2024-01-06T11:50:33;3.97;;;2.20;;
11907;SDS011;6014;47.690;9.130;2024-01-06T11:53:03;3.73;;;1.67;;
11907;SDS011;6014;47.690;9.130;2024-01-06T11:55:34;4.83;;;1.90;;
11907;SDS011;6014;47.690;9.130;2024-01-06T11:58:04;3.63;;;1.70;;
11907;SDS011;6014;47.690;9.130;2024-01-06T12:00:33;4.03;;;1.93;;
11907;SDS011;6014;47.690;9.130;2024-01-06T12:03:03;3.03;;;1.73;;
11907;SDS011;6014;47.690;9.130;2024-01-06T12:05:31;2.73;;;1.70;;
11907;SDS011;6014;47.690;9.130;2024-01-06T12:08:00;3.37;;;1.70;;
11907;SDS011;6014;47.690;9.130;2024-01-06T12:10:32;6.13;;;1.97;;
11907;SDS011;6014;47.690;9.130;2024-01-06T12:13:02;2.53;;;1.70;;
11907;SDS011;6014;47.690;9.130;2024-01-06T12:15:35;3.80;;;1.83;;
11907;SDS011;6014;47.690;9.130;2024-01-06T12:18:06;3.00;;;1.73;;
11907;SDS011;6014;47.690;9.130;2024-01-06T12:20:35;3.33;;;1.73;;
11907;SDS011;6014;47.690;9.130;2024-01-06T12:23:03;4.23;;;1.80;;
11907;SDS011;6014;47.690;9.130;2024-01-06T12:25:34;4.00;;;1.83;;
11907;SDS011;6014;47.690;9.130;2024-01-06T12:28:07;4.27;;;1.90;;
11907;SDS011;6014;47.690;9.130;2024-01-06T12:30:36;3.70;;;1.70;;
11907;SDS011;6014;47.690;9.130;2024-01-06T12:33:06;5.00;;;1.80;;
11907;SDS011;6014;47.690;9.130;2024-01-06T12:35:35;3.00;;;1.70;;
11907;SDS011;6014;47.690;9.130;2024-01-06T12:38:03;3.23;;;1.80;;
11907;SDS011;6014;47.690;9.130;2024-01-06T12:40:34;3.77;;;1.57;;
11907;SDS011;6014;47.690;9.130;2024-01-06T12:43:04;3.93;;;1.80;;
11907;SDS011;6014;47.690;9.130;2024-01-06T12:45:34;8.97;;;4.83;;
11907;SDS011;6014;47.690;9.130;2024-01-06T12:48:03;9.47;;;4.27;;
11907;SDS011;6014;47.690;9.130;2024-01-06T12:50:32;4.53;;;2.20;;
11907;SDS011;6014;47.690;9.130;2024-01-06T12:53:00;4.00;;;2.23;;
11907;SDS011;6014;47.690;9.130;2024-01-06T12:55:28;3.90;;;2.00;;
11907;SDS011;6014;47.690;9.130;2024-01-06T12:57:57;4.43;;;1.67;;
11907;SDS011;6014;47.690;9.130;2024-01-06T13:00:28;4.20;;;2.10;;
11907;SDS011;6014;47.690;9.130;2024-01-06T13:03:03;3.80;;;2.10;;
11907;SDS011;6014;47.690;9.130;2024-01-06T13:05:32;5.70;;;2.70;;
11907;SDS011;6014;47.690;9.130;2024-01-06T13:08:00;4.27;;;1.93;;
11907;SDS011;6014;47.690;9.130;2024-01-06T13:10:29;4.87;;;2.40;;
11907;SDS011;6014;47.690;9.130;2024-01-06T13:12:58;3.67;;;2.00;;
11907;SDS011;6014;47.690;9.130;2024-01-06T13:15:26;4.43;;;2.10;;
11907;SDS011;6014;47.690;9.130;2024-01-06T13:17:54;7.63;;;2.50;;
11907;SDS011;6014;47.690;9.130;2024-01-06T13:20:24;4.20;;;2.20;;
11907;SDS011;6014;47.690;9.130;2024-01-06T13:22:53;4.23;;;2.10;;
11907;SDS011;6014;47.690;9.130;2024-01-06T13:25:21;4.47;;;2.23;;
11907;SDS011;6014;47.690;9.130;2024-01-06T13:27:50;4.80;;;2.20;;
11907;SDS011;6014;47.690;9.130;2024-01-06T13:30:18;4.43;;;2.50;;
11907;SDS011;6014;47.690;9.130;2024-01-06T13:32:47;6.67;;;2.30;;
11907;SDS011;6014;47.690;9.130;2024-01-06T13:35:17;5.13;;;2.07;;
11907;SDS011;6014;47.690;9.130;2024-01-06T13:37:47;5.13;;;2.60;;
11907;SDS011;6014;47.690;9.130;2024-01-06T13:40:17;4.27;;;2.27;;
11907;SDS011;6014;47.690;9.130;2024-01-06T13:42:46;5.83;;;3.07;;
11907;SDS011;6014;47.690;9.130;2024-01-06T13:45:15;6.43;;;2.00;;
11907;SDS011;6014;47.690;9.130;2024-01-06T13:47:47;28.60;;;14.70;;
11907;SDS011;6014;47.690;9.130;2024-01-06T13:50:16;14.73;;;7.03;;
11907;SDS011;6014;47.690;9.130;2024-01-06T13:52:48;4.30;;;2.30;;
11907;SDS011;6014;47.690;9.130;2024-01-06T13:55:16;5.10;;;2.70;;
11907;SDS011;6014;47.690;9.130;2024-01-06T13:57:44;5.30;;;2.17;;
11907;SDS011;6014;47.690;9.130;2024-01-06T14:00:12;5.30;;;2.30;;
11907;SDS011;6014;47.690;9.130;2024-01-06T14:02:46;4.17;;;2.10;;
11907;SDS011;6014;47.690;9.130;2024-01-06T14:05:15;4.80;;;2.00;;
11907;SDS011;6014;47.690;9.130;2024-01-06T14:07:43;4.63;;;1.93;;
11907;SDS011;6014;47.690;9.130;2024-01-06T14:10:16;3.97;;;1.87;;
11907;SDS011;6014;47.690;9.130;2024-01-06T14:12:44;2.67;;;1.58;;
11907;SDS011;6014;47.690;9.130;2024-01-06T14:15:13;5.33;;;2.27;;
11907;SDS011;6014;47.690;9.130;2024-01-06T14:17:42;3.37;;;2.03;;
11907;SDS011;6014;47.690;9.130;2024-01-06T14:20:16;3.57;;;1.50;;
11907;SDS011;6014;47.690;9.130;2024-01-06T14:22:45;5.77;;;2.93;;
11907;SDS011;6014;47.690;9.130;2024-01-06T14:25:15;3.67;;;2.20;;
11907;SDS011;6014;47.690;9.130;2024-01-06T14:27:45;4.77;;;2.43;;
11907;SDS011;6014;47.690;9.130;2024-01-06T14:30:14;5.47;;;2.50;;
11907;SDS011;6014;47.690;9.130;2024-01-06T14:32:42;4.70;;;2.53;;
11907;SDS011;6014;47.690;9.130;2024-01-06T14:35:11;4.40;;;2.07;;
11907;SDS011;6014;47.690;9.130;2024-01-06T14:37:41;7.50;;;2.60;;
11907;SDS011;6014;47.690;9.130;2024-01-06T14:40:11;4.13;;;2.33;;
11907;SDS011;6014;47.690;9.130;2024-01-06T14:42:41;5.83;;;2.13;;
11907;SDS011;6014;47.690;9.130;2024-01-06T14:45:09;3.20;;;2.00;;
11907;SDS011;6014;47.690;9.130;2024-01-06T14:47:38;6.73;;;3.60;;
11907;SDS011;6014;47.690;9.130;2024-01-06T14:50:07;4.33;;;2.70;;
11907;SDS011;6014;47.690;9.130;2024-01-06T14:52:36;4.57;;;2.30;;
11907;SDS011;6014;47.690;9.130;2024-01-06T14:55:04;5.30;;;2.33;;
11907;SDS011;6014;47.690;9.130;2024-01-06T14:57:33;4.60;;;2.23;;
11907;SDS011;6014;47.690;9.130;2024-01-06T15:00:03;5.03;;;2.70;;
11907;SDS011;6014;47.690;9.130;2024-01-06T15:02:34;4.90;;;2.37;;
11907;SDS011;6014;47.690;9.130;2024-01-06T15:05:03;4.30;;;2.10;;
11907;SDS011;6014;47.690;9.130;2024-01-06T15:07:32;4.20;;;2.30;;
11907;SDS011;6014;47.690;9.130;2024-01-06T15:10:01;5.70;;;2.30;;
11907;SDS011;6014;47.690;9.130;2024-01-06T15:12:31;6.83;;;2.30;;